SKSM/SMR METAR and TAF weather

Enter ICAO airport designator
Station Type Date Time Source
SKSM METAR 2018/12/15 02:00 UTC NOAA

SKSM 150200Z 04012KT 9999 FEW020 29/22 A2987


Station Type Date Time Source
SKSM Decoded METAR 2018/12/15 02:00 UTC NOAA

Santa Marta / Simon Bolivar, Colombia (SKSM) 11-08N 074-14W 14M
Dec 14, 2018 - 09:00 PM EST / 2018.12.15 0200 UTC
Wind: from the NE (040 degrees) at 14 MPH (12 KT):0
Visibility: greater than 7 mile(s):0
Sky conditions: mostly clear
Temperature: 84 F (29 C)
Dew Point: 71 F (22 C)
Relative Humidity: 65%
Pressure (altimeter): 29.87 in. Hg (1011 hPa)
ob: SKSM 150200Z 04012KT 9999 FEW020 29/22 A2987
cycle: 2

Station Type Date Time Source
SKSM TAF UTC NOAA

Error!


Example: see airport list